sensor_id;sensor_type;location;lat;lon;timestamp;temperature;humidity
33815;DHT22;20121;51.910;8.406;2023-03-13T00:01:25;8.90;99.90
33815;DHT22;20121;51.910;8.406;2023-03-13T00:03:52;9.00;99.90
33815;DHT22;20121;51.910;8.406;2023-03-13T00:06:20;9.10;99.90
33815;DHT22;20121;51.910;8.406;2023-03-13T00:08:46;9.10;99.90
33815;DHT22;20121;51.910;8.406;2023-03-13T00:11:13;9.00;99.90
33815;DHT22;20121;51.910;8.406;2023-03-13T00:13:40;9.00;99.90
33815;DHT22;20121;51.910;8.406;2023-03-13T00:16:13;9.00;99.90
33815;DHT22;20121;51.910;8.406;2023-03-13T00:18:44;8.90;99.90
33815;DHT22;20121;51.910;8.406;2023-03-13T00:21:11;9.00;99.90
33815;DHT22;20121;51.910;8.406;2023-03-13T00:23:37;9.00;99.90
33815;DHT22;20121;51.910;8.406;2023-03-13T00:26:09;8.70;99.90
33815;DHT22;20121;51.910;8.406;2023-03-13T00:28:36;9.10;99.90
33815;DHT22;20121;51.910;8.406;2023-03-13T00:31:19;9.00;99.90
33815;DHT22;20121;51.910;8.406;2023-03-13T00:33:47;9.00;99.90
33815;DHT22;20121;51.910;8.406;2023-03-13T00:36:19;9.00;99.90
33815;DHT22;20121;51.910;8.406;2023-03-13T00:38:45;9.00;99.90
33815;DHT22;20121;51.910;8.406;2023-03-13T00:41:14;9.00;99.90
33815;DHT22;20121;51.910;8.406;2023-03-13T00:43:41;9.00;99.90
33815;DHT22;20121;51.910;8.406;2023-03-13T00:46:08;9.00;99.90
33815;DHT22;20121;51.910;8.406;2023-03-13T00:48:34;9.00;99.90
33815;DHT22;20121;51.910;8.406;2023-03-13T00:51:01;9.00;99.90
33815;DHT22;20121;51.910;8.406;2023-03-13T00:53:27;9.00;99.90
33815;DHT22;20121;51.910;8.406;2023-03-13T00:58:23;9.00;99.90
33815;DHT22;20121;51.910;8.406;2023-03-13T01:00:50;9.00;99.90
33815;DHT22;20121;51.910;8.406;2023-03-13T01:03:16;9.00;99.90
33815;DHT22;20121;51.910;8.406;2023-03-13T01:05:41;9.00;99.90
33815;DHT22;20121;51.910;8.406;2023-03-13T01:08:07;9.10;99.90
33815;DHT22;20121;51.910;8.406;2023-03-13T01:10:33;9.00;99.90
33815;DHT22;20121;51.910;8.406;2023-03-13T01:13:00;9.10;99.90
33815;DHT22;20121;51.910;8.406;2023-03-13T01:15:25;9.10;99.90
33815;DHT22;20121;51.910;8.406;2023-03-13T01:17:51;9.10;99.90
33815;DHT22;20121;51.910;8.406;2023-03-13T01:20:16;9.10;99.90
33815;DHT22;20121;51.910;8.406;2023-03-13T01:22:42;9.20;99.90
33815;DHT22;20121;51.910;8.406;2023-03-13T01:25:08;9.20;99.90
33815;DHT22;20121;51.910;8.406;2023-03-13T01:27:33;9.20;99.90
33815;DHT22;20121;51.910;8.406;2023-03-13T01:29:59;9.20;99.90
33815;DHT22;20121;51.910;8.406;2023-03-13T01:32:25;9.20;99.90
33815;DHT22;20121;51.910;8.406;2023-03-13T01:34:50;9.20;99.90
33815;DHT22;20121;51.910;8.406;2023-03-13T01:37:16;9.20;99.90
33815;DHT22;20121;51.910;8.406;2023-03-13T01:39:41;9.20;99.90
33815;DHT22;20121;51.910;8.406;2023-03-13T01:42:07;9.20;99.90
33815;DHT22;20121;51.910;8.406;2023-03-13T01:44:53;9.20;99.90
33815;DHT22;20121;51.910;8.406;2023-03-13T01:47:19;9.30;99.90
33815;DHT22;20121;51.910;8.406;2023-03-13T01:49:46;9.20;99.90
33815;DHT22;20121;51.910;8.406;2023-03-13T01:52:24;9.20;99.90
33815;DHT22;20121;51.910;8.406;2023-03-13T01:54:51;9.20;99.90
33815;DHT22;20121;51.910;8.406;2023-03-13T01:57:30;9.20;99.90
33815;DHT22;20121;51.910;8.406;2023-03-13T02:02:26;9.20;99.90
33815;DHT22;20121;51.910;8.406;2023-03-13T02:04:59;9.20;99.90
33815;DHT22;20121;51.910;8.406;2023-03-13T02:07:37;9.00;99.90
33815;DHT22;20121;51.910;8.406;2023-03-13T02:10:04;9.00;99.90
33815;DHT22;20121;51.910;8.406;2023-03-13T02:12:34;9.10;99.90
33815;DHT22;20121;51.910;8.406;2023-03-13T02:15:13;9.10;99.90
33815;DHT22;20121;51.910;8.406;2023-03-13T02:17:40;9.10;99.90
33815;DHT22;20121;51.910;8.406;2023-03-13T02:20:07;9.00;99.90
33815;DHT22;20121;51.910;8.406;2023-03-13T02:27:51;9.00;99.90
33815;DHT22;20121;51.910;8.406;2023-03-13T02:30:17;8.90;99.90
33815;DHT22;20121;51.910;8.406;2023-03-13T02:32:44;8.90;99.90
33815;DHT22;20121;51.910;8.406;2023-03-13T02:35:13;8.90;99.90
33815;DHT22;20121;51.910;8.406;2023-03-13T02:37:45;8.90;99.90
33815;DHT22;20121;51.910;8.406;2023-03-13T02:40:15;9.00;99.90
33815;DHT22;20121;51.910;8.406;2023-03-13T02:42:44;9.00;99.90
33815;DHT22;20121;51.910;8.406;2023-03-13T02:45:13;9.00;99.90
33815;DHT22;20121;51.910;8.406;2023-03-13T02:47:39;9.10;99.90
33815;DHT22;20121;51.910;8.406;2023-03-13T02:50:05;9.10;99.90
33815;DHT22;20121;51.910;8.406;2023-03-13T02:52:35;9.10;99.90
33815;DHT22;20121;51.910;8.406;2023-03-13T02:55:11;9.10;99.90
33815;DHT22;20121;51.910;8.406;2023-03-13T02:57:37;9.10;99.90
33815;DHT22;20121;51.910;8.406;2023-03-13T03:00:05;9.10;99.90
33815;DHT22;20121;51.910;8.406;2023-03-13T03:02:31;9.10;99.90
33815;DHT22;20121;51.910;8.406;2023-03-13T03:04:57;9.10;99.90
33815;DHT22;20121;51.910;8.406;2023-03-13T03:07:23;9.10;99.90
33815;DHT22;20121;51.910;8.406;2023-03-13T03:09:48;9.20;99.90
33815;DHT22;20121;51.910;8.406;2023-03-13T03:12:14;9.20;99.90
33815;DHT22;20121;51.910;8.406;2023-03-13T03:14:39;9.10;99.90
33815;DHT22;20121;51.910;8.406;2023-03-13T03:17:05;9.10;99.90
33815;DHT22;20121;51.910;8.406;2023-03-13T03:19:31;9.10;99.90
33815;DHT22;20121;51.910;8.406;2023-03-13T03:21:56;9.10;99.90
33815;DHT22;20121;51.910;8.406;2023-03-13T03:24:22;9.10;99.90
33815;DHT22;20121;51.910;8.406;2023-03-13T03:26:47;9.00;99.90
33815;DHT22;20121;51.910;8.406;2023-03-13T03:29:13;9.00;99.90
33815;DHT22;20121;51.910;8.406;2023-03-13T03:31:39;8.90;99.90
33815;DHT22;20121;51.910;8.406;2023-03-13T03:34:04;8.80;99.90
33815;DHT22;20121;51.910;8.406;2023-03-13T03:36:30;8.70;99.90
33815;DHT22;20121;51.910;8.406;2023-03-13T03:38:55;8.90;99.90
33815;DHT22;20121;51.910;8.406;2023-03-13T03:41:21;8.80;99.90
33815;DHT22;20121;51.910;8.406;2023-03-13T03:43:47;8.90;99.90
33815;DHT22;20121;51.910;8.406;2023-03-13T03:46:14;8.90;99.90
33815;DHT22;20121;51.910;8.406;2023-03-13T03:48:39;8.90;99.90
33815;DHT22;20121;51.910;8.406;2023-03-13T03:51:05;8.90;99.90
33815;DHT22;20121;51.910;8.406;2023-03-13T03:53:31;8.90;99.90
33815;DHT22;20121;51.910;8.406;2023-03-13T03:55:57;8.90;99.90
33815;DHT22;20121;51.910;8.406;2023-03-13T03:58:23;8.90;99.90
33815;DHT22;20121;51.910;8.406;2023-03-13T04:00:49;8.90;99.90
33815;DHT22;20121;51.910;8.406;2023-03-13T04:03:15;8.90;99.90
33815;DHT22;20121;51.910;8.406;2023-03-13T04:05:41;9.00;99.90
33815;DHT22;20121;51.910;8.406;2023-03-13T04:08:07;9.00;99.90
33815;DHT22;20121;51.910;8.406;2023-03-13T04:10:33;9.10;99.90
33815;DHT22;20121;51.910;8.406;2023-03-13T04:12:59;8.80;99.90
33815;DHT22;20121;51.910;8.406;2023-03-13T04:15:24;9.00;99.90
33815;DHT22;20121;51.910;8.406;2023-03-13T04:17:50;9.10;99.90
33815;DHT22;20121;51.910;8.406;2023-03-13T04:20:16;9.10;99.90
33815;DHT22;20121;51.910;8.406;2023-03-13T04:22:42;9.20;99.90
33815;DHT22;20121;51.910;8.406;2023-03-13T04:25:08;9.20;99.90
33815;DHT22;20121;51.910;8.406;2023-03-13T04:27:34;9.30;99.90
33815;DHT22;20121;51.910;8.406;2023-03-13T04:29:59;9.30;99.90
33815;DHT22;20121;51.910;8.406;2023-03-13T04:32:25;9.30;99.90
33815;DHT22;20121;51.910;8.406;2023-03-13T04:34:51;9.40;99.90
33815;DHT22;20121;51.910;8.406;2023-03-13T04:37:17;9.40;99.90
33815;DHT22;20121;51.910;8.406;2023-03-13T04:39:43;9.40;99.90
33815;DHT22;20121;51.910;8.406;2023-03-13T04:42:12;9.40;99.90
33815;DHT22;20121;51.910;8.406;2023-03-13T04:44:37;9.50;99.90
33815;DHT22;20121;51.910;8.406;2023-03-13T04:47:03;9.50;99.90
33815;DHT22;20121;51.910;8.406;2023-03-13T04:49:29;9.50;99.90
33815;DHT22;20121;51.910;8.406;2023-03-13T04:51:55;9.50;99.90
33815;DHT22;20121;51.910;8.406;2023-03-13T04:54:21;9.50;99.90
33815;DHT22;20121;51.910;8.406;2023-03-13T04:56:47;9.50;99.90
33815;DHT22;20121;51.910;8.406;2023-03-13T04:59:14;9.60;99.90
33815;DHT22;20121;51.910;8.406;2023-03-13T05:01:41;9.60;99.90
33815;DHT22;20121;51.910;8.406;2023-03-13T05:04:08;9.50;99.90
33815;DHT22;20121;51.910;8.406;2023-03-13T05:06:34;9.60;99.90
33815;DHT22;20121;51.910;8.406;2023-03-13T05:09:00;9.70;99.90
33815;DHT22;20121;51.910;8.406;2023-03-13T05:11:25;9.70;99.90
33815;DHT22;20121;51.910;8.406;2023-03-13T05:13:51;9.70;99.90
33815;DHT22;20121;51.910;8.406;2023-03-13T05:16:16;9.70;99.90
33815;DHT22;20121;51.910;8.406;2023-03-13T05:18:42;9.70;99.90
33815;DHT22;20121;51.910;8.406;2023-03-13T05:21:08;9.80;99.90
33815;DHT22;20121;51.910;8.406;2023-03-13T05:23:34;9.80;99.90
33815;DHT22;20121;51.910;8.406;2023-03-13T05:28:26;9.90;99.90
33815;DHT22;20121;51.910;8.406;2023-03-13T05:30:52;10.00;99.90
33815;DHT22;20121;51.910;8.406;2023-03-13T05:33:17;10.00;99.90
33815;DHT22;20121;51.910;8.406;2023-03-13T05:35:46;10.10;99.90
33815;DHT22;20121;51.910;8.406;2023-03-13T05:38:12;10.10;99.90
33815;DHT22;20121;51.910;8.406;2023-03-13T05:40:38;10.30;99.90
33815;DHT22;20121;51.910;8.406;2023-03-13T05:43:04;10.30;99.90
33815;DHT22;20121;51.910;8.406;2023-03-13T05:45:29;10.40;99.90
33815;DHT22;20121;51.910;8.406;2023-03-13T05:47:55;10.50;99.90
33815;DHT22;20121;51.910;8.406;2023-03-13T05:50:21;10.60;99.90
33815;DHT22;20121;51.910;8.406;2023-03-13T05:52:46;10.60;99.90
33815;DHT22;20121;51.910;8.406;2023-03-13T05:57:38;10.70;99.90
33815;DHT22;20121;51.910;8.406;2023-03-13T06:00:04;10.70;99.90
33815;DHT22;20121;51.910;8.406;2023-03-13T06:02:30;10.80;99.90
33815;DHT22;20121;51.910;8.406;2023-03-13T06:04:56;10.80;99.90
33815;DHT22;20121;51.910;8.406;2023-03-13T06:07:21;10.80;99.90
33815;DHT22;20121;51.910;8.406;2023-03-13T06:09:47;10.80;99.90
33815;DHT22;20121;51.910;8.406;2023-03-13T06:12:12;10.80;99.90
33815;DHT22;20121;51.910;8.406;2023-03-13T06:14:38;10.90;99.90
33815;DHT22;20121;51.910;8.406;2023-03-13T06:17:04;10.90;99.90
33815;DHT22;20121;51.910;8.406;2023-03-13T06:19:30;10.90;99.90
33815;DHT22;20121;51.910;8.406;2023-03-13T06:21:56;10.90;99.90
33815;DHT22;20121;51.910;8.406;2023-03-13T06:24:22;11.00;99.90
33815;DHT22;20121;51.910;8.406;2023-03-13T06:26:48;11.00;99.90
33815;DHT22;20121;51.910;8.406;2023-03-13T06:29:14;11.00;99.90
33815;DHT22;20121;51.910;8.406;2023-03-13T06:31:40;11.00;99.90
33815;DHT22;20121;51.910;8.406;2023-03-13T06:34:07;10.80;99.90
33815;DHT22;20121;51.910;8.406;2023-03-13T06:36:33;11.00;99.90
33815;DHT22;20121;51.910;8.406;2023-03-13T06:38:59;11.40;99.90
33815;DHT22;20121;51.910;8.406;2023-03-13T06:41:24;11.10;99.90
33815;DHT22;20121;51.910;8.406;2023-03-13T06:43:50;11.20;99.90
33815;DHT22;20121;51.910;8.406;2023-03-13T06:46:18;11.10;99.90
33815;DHT22;20121;51.910;8.406;2023-03-13T06:48:44;11.10;99.90
33815;DHT22;20121;51.910;8.406;2023-03-13T06:51:14;11.20;99.90
33815;DHT22;20121;51.910;8.406;2023-03-13T06:53:40;11.20;99.90
33815;DHT22;20121;51.910;8.406;2023-03-13T06:56:07;11.20;99.90
33815;DHT22;20121;51.910;8.406;2023-03-13T06:58:33;11.20;99.90
33815;DHT22;20121;51.910;8.406;2023-03-13T07:01:04;11.20;99.90
33815;DHT22;20121;51.910;8.406;2023-03-13T07:03:30;11.20;99.90
33815;DHT22;20121;51.910;8.406;2023-03-13T07:05:57;11.20;99.90
33815;DHT22;20121;51.910;8.406;2023-03-13T07:08:22;11.30;99.90
33815;DHT22;20121;51.910;8.406;2023-03-13T07:10:50;10.90;99.90
33815;DHT22;20121;51.910;8.406;2023-03-13T07:13:17;11.50;99.90
33815;DHT22;20121;51.910;8.406;2023-03-13T07:15:44;11.30;99.90
33815;DHT22;20121;51.910;8.406;2023-03-13T07:18:10;11.30;99.90
33815;DHT22;20121;51.910;8.406;2023-03-13T07:20:35;11.40;99.90
33815;DHT22;20121;51.910;8.406;2023-03-13T07:23:01;11.30;99.90
33815;DHT22;20121;51.910;8.406;2023-03-13T07:25:26;11.30;99.90
33815;DHT22;20121;51.910;8.406;2023-03-13T07:27:52;10.90;99.90
33815;DHT22;20121;51.910;8.406;2023-03-13T07:30:19;11.30;99.90
33815;DHT22;20121;51.910;8.406;2023-03-13T07:32:44;11.40;99.90
33815;DHT22;20121;51.910;8.406;2023-03-13T07:35:10;11.50;99.90
33815;DHT22;20121;51.910;8.406;2023-03-13T07:37:35;11.90;99.90
33815;DHT22;20121;51.910;8.406;2023-03-13T07:40:01;11.80;99.90
33815;DHT22;20121;51.910;8.406;2023-03-13T07:42:27;11.40;99.90
33815;DHT22;20121;51.910;8.406;2023-03-13T07:44:52;11.50;99.90
33815;DHT22;20121;51.910;8.406;2023-03-13T07:47:18;11.50;99.90
33815;DHT22;20121;51.910;8.406;2023-03-13T07:49:44;11.50;99.90
33815;DHT22;20121;51.910;8.406;2023-03-13T07:52:11;11.50;99.90
33815;DHT22;20121;51.910;8.406;2023-03-13T07:54:36;11.60;99.90
33815;DHT22;20121;51.910;8.406;2023-03-13T07:57:02;11.60;99.90
33815;DHT22;20121;51.910;8.406;2023-03-13T07:59:28;11.50;99.90
33815;DHT22;20121;51.910;8.406;2023-03-13T08:01:54;11.80;99.90
33815;DHT22;20121;51.910;8.406;2023-03-13T08:04:20;12.10;99.90
33815;DHT22;20121;51.910;8.406;2023-03-13T08:06:45;11.80;99.90
33815;DHT22;20121;51.910;8.406;2023-03-13T08:09:11;11.60;99.90
33815;DHT22;20121;51.910;8.406;2023-03-13T08:14:05;12.10;99.90
33815;DHT22;20121;51.910;8.406;2023-03-13T08:16:32;12.00;99.90
33815;DHT22;20121;51.910;8.406;2023-03-13T08:18:59;13.20;99.90
33815;DHT22;20121;51.910;8.406;2023-03-13T08:23:57;12.10;99.90
33815;DHT22;20121;51.910;8.406;2023-03-13T08:26:26;12.10;99.90
33815;DHT22;20121;51.910;8.406;2023-03-13T08:29:00;12.20;99.90
33815;DHT22;20121;51.910;8.406;2023-03-13T08:31:32;12.20;99.90
33815;DHT22;20121;51.910;8.406;2023-03-13T08:33:58;12.30;99.90
33815;DHT22;20121;51.910;8.406;2023-03-13T08:36:26;12.40;99.90
33815;DHT22;20121;51.910;8.406;2023-03-13T08:38:54;12.40;99.90
33815;DHT22;20121;51.910;8.406;2023-03-13T08:41:23;12.70;99.90
33815;DHT22;20121;51.910;8.406;2023-03-13T08:43:51;12.00;99.90
33815;DHT22;20121;51.910;8.406;2023-03-13T08:46:17;12.30;99.90
33815;DHT22;20121;51.910;8.406;2023-03-13T08:48:42;12.60;99.90
33815;DHT22;20121;51.910;8.406;2023-03-13T08:51:12;12.50;99.90
33815;DHT22;20121;51.910;8.406;2023-03-13T08:53:40;12.70;99.90
33815;DHT22;20121;51.910;8.406;2023-03-13T08:56:07;14.40;99.90
33815;DHT22;20121;51.910;8.406;2023-03-13T08:58:33;12.70;99.90
33815;DHT22;20121;51.910;8.406;2023-03-13T09:01:12;12.80;99.90
33815;DHT22;20121;51.910;8.406;2023-03-13T09:03:39;12.00;99.90
33815;DHT22;20121;51.910;8.406;2023-03-13T09:06:05;13.20;99.90
33815;DHT22;20121;51.910;8.406;2023-03-13T09:08:32;12.90;99.90
33815;DHT22;20121;51.910;8.406;2023-03-13T09:10:59;12.80;99.90
33815;DHT22;20121;51.910;8.406;2023-03-13T09:13:26;13.10;99.90
33815;DHT22;20121;51.910;8.406;2023-03-13T09:16:00;13.20;99.90
33815;DHT22;20121;51.910;8.406;2023-03-13T09:18:27;12.90;99.90
33815;DHT22;20121;51.910;8.406;2023-03-13T09:20:53;13.10;99.90
33815;DHT22;20121;51.910;8.406;2023-03-13T09:23:19;13.10;99.90
33815;DHT22;20121;51.910;8.406;2023-03-13T09:25:45;13.20;99.90
33815;DHT22;20121;51.910;8.406;2023-03-13T09:28:11;13.20;99.90
33815;DHT22;20121;51.910;8.406;2023-03-13T09:30:37;13.20;99.90
33815;DHT22;20121;51.910;8.406;2023-03-13T09:33:02;13.20;99.90
33815;DHT22;20121;51.910;8.406;2023-03-13T09:35:28;13.30;99.90
33815;DHT22;20121;51.910;8.406;2023-03-13T09:37:54;13.30;99.90
33815;DHT22;20121;51.910;8.406;2023-03-13T09:40:21;13.30;99.90
33815;DHT22;20121;51.910;8.406;2023-03-13T09:42:50;13.00;99.90
33815;DHT22;20121;51.910;8.406;2023-03-13T09:45:40;13.50;99.90
33815;DHT22;20121;51.910;8.406;2023-03-13T09:51:22;13.30;99.90
33815;DHT22;20121;51.910;8.406;2023-03-13T09:54:23;13.30;99.90
33815;DHT22;20121;51.910;8.406;2023-03-13T09:56:56;13.50;99.90
33815;DHT22;20121;51.910;8.406;2023-03-13T09:59:33;13.50;99.90
33815;DHT22;20121;51.910;8.406;2023-03-13T10:02:03;13.60;99.90
33815;DHT22;20121;51.910;8.406;2023-03-13T10:04:47;13.90;99.90
33815;DHT22;20121;51.910;8.406;2023-03-13T10:07:14;13.90;99.90
33815;DHT22;20121;51.910;8.406;2023-03-13T10:09:39;14.10;99.90
33815;DHT22;20121;51.910;8.406;2023-03-13T10:12:18;14.20;99.90
33815;DHT22;20121;51.910;8.406;2023-03-13T10:17:35;14.40;99.90
33815;DHT22;20121;51.910;8.406;2023-03-13T10:22:37;14.50;99.90
33815;DHT22;20121;51.910;8.406;2023-03-13T10:25:35;14.60;99.90
33815;DHT22;20121;51.910;8.406;2023-03-13T10:28:03;14.60;99.90
33815;DHT22;20121;51.910;8.406;2023-03-13T10:30:34;14.30;99.90
33815;DHT22;20121;51.910;8.406;2023-03-13T10:33:18;14.40;99.90
33815;DHT22;20121;51.910;8.406;2023-03-13T10:35:44;14.70;99.90
33815;DHT22;20121;51.910;8.406;2023-03-13T10:38:16;15.00;99.90
33815;DHT22;20121;51.910;8.406;2023-03-13T10:40:42;15.40;99.90
33815;DHT22;20121;51.910;8.406;2023-03-13T10:43:18;15.90;99.90
33815;DHT22;20121;51.910;8.406;2023-03-13T10:45:44;15.90;99.90
33815;DHT22;20121;51.910;8.406;2023-03-13T10:48:19;15.90;99.90
33815;DHT22;20121;51.910;8.406;2023-03-13T10:50:47;16.00;99.90
33815;DHT22;20121;51.910;8.406;2023-03-13T10:56:11;15.90;99.90
33815;DHT22;20121;51.910;8.406;2023-03-13T10:58:41;15.90;99.90
33815;DHT22;20121;51.910;8.406;2023-03-13T11:01:18;15.90;99.90
33815;DHT22;20121;51.910;8.406;2023-03-13T11:03:47;15.80;99.90
33815;DHT22;20121;51.910;8.406;2023-03-13T11:06:33;15.80;99.90
33815;DHT22;20121;51.910;8.406;2023-03-13T11:09:09;15.80;99.90
33815;DHT22;20121;51.910;8.406;2023-03-13T11:12:11;15.80;99.90
33815;DHT22;20121;51.910;8.406;2023-03-13T11:14:38;15.60;99.90
33815;DHT22;20121;51.910;8.406;2023-03-13T11:17:27;15.60;99.90
33815;DHT22;20121;51.910;8.406;2023-03-13T11:20:27;15.60;99.90
33815;DHT22;20121;51.910;8.406;2023-03-13T11:23:19;15.60;99.90
33815;DHT22;20121;51.910;8.406;2023-03-13T11:26:01;15.70;99.90
33815;DHT22;20121;51.910;8.406;2023-03-13T11:28:41;15.70;99.90
33815;DHT22;20121;51.910;8.406;2023-03-13T11:31:38;15.80;99.90
33815;DHT22;20121;51.910;8.406;2023-03-13T11:34:42;15.60;99.90
33815;DHT22;20121;51.910;8.406;2023-03-13T11:37:17;16.00;99.90
33815;DHT22;20121;51.910;8.406;2023-03-13T11:47:40;15.90;99.90
33815;DHT22;20121;51.910;8.406;2023-03-13T11:59:00;16.00;99.90
33815;DHT22;20121;51.910;8.406;2023-03-13T12:01:26;16.20;99.90
33815;DHT22;20121;51.910;8.406;2023-03-13T12:06:54;16.50;99.90
33815;DHT22;20121;51.910;8.406;2023-03-13T12:09:33;16.50;99.90
33815;DHT22;20121;51.910;8.406;2023-03-13T12:12:50;16.50;99.90
33815;DHT22;20121;51.910;8.406;2023-03-13T12:15:31;16.60;99.90
33815;DHT22;20121;51.910;8.406;2023-03-13T12:18:37;16.60;99.90
33815;DHT22;20121;51.910;8.406;2023-03-13T12:21:06;16.70;99.90
33815;DHT22;20121;51.910;8.406;2023-03-13T12:26:18;16.80;99.90
33815;DHT22;20121;51.910;8.406;2023-03-13T12:34:34;17.80;99.90
33815;DHT22;20121;51.910;8.406;2023-03-13T12:37:13;17.80;99.90
33815;DHT22;20121;51.910;8.406;2023-03-13T12:44:43;18.30;99.90
33815;DHT22;20121;51.910;8.406;2023-03-13T12:47:17;18.40;99.90
33815;DHT22;20121;51.910;8.406;2023-03-13T12:50:07;18.00;99.90
33815;DHT22;20121;51.910;8.406;2023-03-13T13:00:41;18.70;99.90
33815;DHT22;20121;51.910;8.406;2023-03-13T13:06:10;18.50;99.90
33815;DHT22;20121;51.910;8.406;2023-03-13T13:09:06;18.30;99.90
33815;DHT22;20121;51.910;8.406;2023-03-13T13:17:12;17.90;99.90
33815;DHT22;20121;51.910;8.406;2023-03-13T13:37:40;18.10;99.90
33815;DHT22;20121;51.910;8.406;2023-03-13T13:42:58;18.00;99.90
33815;DHT22;20121;51.910;8.406;2023-03-13T13:45:26;18.00;99.90
33815;DHT22;20121;51.910;8.406;2023-03-13T13:48:54;18.10;99.90
33815;DHT22;20121;51.910;8.406;2023-03-13T13:53:47;18.10;99.90
33815;DHT22;20121;51.910;8.406;2023-03-13T13:58:58;18.10;99.90
33815;DHT22;20121;51.910;8.406;2023-03-13T14:01:25;18.70;99.90
33815;DHT22;20121;51.910;8.406;2023-03-13T14:03:53;18.30;99.90
33815;DHT22;20121;51.910;8.406;2023-03-13T14:06:23;18.30;99.90
33815;DHT22;20121;51.910;8.406;2023-03-13T14:08:54;18.20;99.90
33815;DHT22;20121;51.910;8.406;2023-03-13T14:14:17;18.00;99.90
33815;DHT22;20121;51.910;8.406;2023-03-13T14:16:49;17.90;99.90
33815;DHT22;20121;51.910;8.406;2023-03-13T14:19:32;17.90;99.90
33815;DHT22;20121;51.910;8.406;2023-03-13T14:22:04;17.90;99.90
33815;DHT22;20121;51.910;8.406;2023-03-13T14:24:31;17.90;99.90
33815;DHT22;20121;51.910;8.406;2023-03-13T14:26:56;17.90;99.90
33815;DHT22;20121;51.910;8.406;2023-03-13T14:29:23;17.80;99.90
33815;DHT22;20121;51.910;8.406;2023-03-13T14:31:58;17.70;99.90
33815;DHT22;20121;51.910;8.406;2023-03-13T14:34:26;17.80;99.90
33815;DHT22;20121;51.910;8.406;2023-03-13T14:36:57;17.60;99.90
33815;DHT22;20121;51.910;8.406;2023-03-13T14:42:03;17.40;99.90
33815;DHT22;20121;51.910;8.406;2023-03-13T14:44:31;17.30;99.90
33815;DHT22;20121;51.910;8.406;2023-03-13T14:47:05;17.30;99.90
33815;DHT22;20121;51.910;8.406;2023-03-13T14:49:31;17.20;99.90
33815;DHT22;20121;51.910;8.406;2023-03-13T14:52:01;17.20;99.90
33815;DHT22;20121;51.910;8.406;2023-03-13T14:54:35;17.20;99.90
33815;DHT22;20121;51.910;8.406;2023-03-13T14:57:21;17.20;99.90
33815;DHT22;20121;51.910;8.406;2023-03-13T14:59:48;17.10;99.90
33815;DHT22;20121;51.910;8.406;2023-03-13T15:02:23;17.10;99.90
33815;DHT22;20121;51.910;8.406;2023-03-13T15:07:19;17.10;99.90
33815;DHT22;20121;51.910;8.406;2023-03-13T15:09:46;17.10;99.90
33815;DHT22;20121;51.910;8.406;2023-03-13T15:12:16;17.10;99.90
33815;DHT22;20121;51.910;8.406;2023-03-13T15:14:44;17.20;99.90
33815;DHT22;20121;51.910;8.406;2023-03-13T15:19:41;17.10;99.90
33815;DHT22;20121;51.910;8.406;2023-03-13T15:22:12;17.10;99.90
33815;DHT22;20121;51.910;8.406;2023-03-13T15:24:40;17.00;99.90
33815;DHT22;20121;51.910;8.406;2023-03-13T15:27:17;17.00;99.90
33815;DHT22;20121;51.910;8.406;2023-03-13T15:29:45;17.00;99.90
33815;DHT22;20121;51.910;8.406;2023-03-13T15:32:26;17.00;99.90
33815;DHT22;20121;51.910;8.406;2023-03-13T15:34:52;16.90;99.90
33815;DHT22;20121;51.910;8.406;2023-03-13T15:37:21;16.90;99.90
33815;DHT22;20121;51.910;8.406;2023-03-13T15:39:47;16.90;99.90
33815;DHT22;20121;51.910;8.406;2023-03-13T15:42:13;16.50;99.90
33815;DHT22;20121;51.910;8.406;2023-03-13T15:44:38;16.80;99.90
33815;DHT22;20121;51.910;8.406;2023-03-13T15:47:04;16.80;99.90
33815;DHT22;20121;51.910;8.406;2023-03-13T15:49:32;16.70;99.90
33815;DHT22;20121;51.910;8.406;2023-03-13T15:51:58;16.70;99.90
33815;DHT22;20121;51.910;8.406;2023-03-13T15:54:23;16.60;99.90
33815;DHT22;20121;51.910;8.406;2023-03-13T15:56:49;16.60;99.90
33815;DHT22;20121;51.910;8.406;2023-03-13T15:59:15;16.50;99.90
33815;DHT22;20121;51.910;8.406;2023-03-13T16:01:41;16.40;99.90
33815;DHT22;20121;51.910;8.406;2023-03-13T16:04:09;16.60;99.90
33815;DHT22;20121;51.910;8.406;2023-03-13T16:06:35;16.40;99.90
33815;DHT22;20121;51.910;8.406;2023-03-13T16:09:03;16.40;99.90
33815;DHT22;20121;51.910;8.406;2023-03-13T16:11:30;16.20;99.90
33815;DHT22;20121;51.910;8.406;2023-03-13T16:13:56;16.10;99.90
33815;DHT22;20121;51.910;8.406;2023-03-13T16:16:23;16.30;99.90
33815;DHT22;20121;51.910;8.406;2023-03-13T16:18:50;16.30;99.90
33815;DHT22;20121;51.910;8.406;2023-03-13T16:21:24;16.30;99.90
33815;DHT22;20121;51.910;8.406;2023-03-13T16:23:50;16.20;99.90
33815;DHT22;20121;51.910;8.406;2023-03-13T16:26:24;16.20;99.90
33815;DHT22;20121;51.910;8.406;2023-03-13T16:28:51;16.20;99.90
33815;DHT22;20121;51.910;8.406;2023-03-13T16:31:28;16.30;99.90
33815;DHT22;20121;51.910;8.406;2023-03-13T16:33:55;16.30;99.90
33815;DHT22;20121;51.910;8.406;2023-03-13T16:36:26;16.30;99.90
33815;DHT22;20121;51.910;8.406;2023-03-13T16:38:53;16.20;99.90
33815;DHT22;20121;51.910;8.406;2023-03-13T16:41:22;16.20;99.90
33815;DHT22;20121;51.910;8.406;2023-03-13T16:43:48;16.20;99.90
33815;DHT22;20121;51.910;8.406;2023-03-13T16:46:43;16.20;99.90
33815;DHT22;20121;51.910;8.406;2023-03-13T16:49:12;16.10;99.90
33815;DHT22;20121;51.910;8.406;2023-03-13T16:51:38;16.10;99.90
33815;DHT22;20121;51.910;8.406;2023-03-13T16:56:36;16.10;99.90
33815;DHT22;20121;51.910;8.406;2023-03-13T16:59:04;16.00;99.90
33815;DHT22;20121;51.910;8.406;2023-03-13T17:01:30;15.90;99.90
33815;DHT22;20121;51.910;8.406;2023-03-13T17:03:58;15.80;99.90
33815;DHT22;20121;51.910;8.406;2023-03-13T17:06:25;15.70;99.90
33815;DHT22;20121;51.910;8.406;2023-03-13T17:08:51;15.70;99.90
33815;DHT22;20121;51.910;8.406;2023-03-13T17:11:18;15.60;99.90
33815;DHT22;20121;51.910;8.406;2023-03-13T17:13:47;15.50;99.90
33815;DHT22;20121;51.910;8.406;2023-03-13T17:16:25;15.40;99.90
33815;DHT22;20121;51.910;8.406;2023-03-13T17:18:53;15.30;99.90
33815;DHT22;20121;51.910;8.406;2023-03-13T17:21:22;15.20;99.90
33815;DHT22;20121;51.910;8.406;2023-03-13T17:23:49;15.10;99.90
33815;DHT22;20121;51.910;8.406;2023-03-13T17:26:19;15.00;99.90
33815;DHT22;20121;51.910;8.406;2023-03-13T17:28:46;15.00;99.90
33815;DHT22;20121;51.910;8.406;2023-03-13T17:31:12;14.90;99.90
33815;DHT22;20121;51.910;8.406;2023-03-13T17:33:38;14.80;99.90
33815;DHT22;20121;51.910;8.406;2023-03-13T17:36:16;14.70;99.90
33815;DHT22;20121;51.910;8.406;2023-03-13T17:38:42;14.80;99.90
33815;DHT22;20121;51.910;8.406;2023-03-13T17:41:10;14.80;99.90
33815;DHT22;20121;51.910;8.406;2023-03-13T17:43:37;14.60;99.90
33815;DHT22;20121;51.910;8.406;2023-03-13T17:46:02;14.50;99.90
33815;DHT22;20121;51.910;8.406;2023-03-13T17:48:28;14.50;99.90